sensor_id;sensor_type;location;lat;lon;timestamp;P1;durP1;ratioP1;P2;durP2;ratioP2
45314;SDS011;31051;51.540;5.852;2023-06-14T00:06:04;8.7;;;6.3;;
45314;SDS011;31051;51.540;5.852;2023-06-14T00:19:03;7.7;;;6.3;;
45314;SDS011;31051;51.540;5.852;2023-06-14T00:32:03;7.0;;;5.7;;
45314;SDS011;31051;51.540;5.852;2023-06-14T00:45:02;6.2;;;5.3;;
45314;SDS011;31051;51.540;5.852;2023-06-14T00:58:01;7.6;;;5.7;;
45314;SDS011;31051;51.540;5.852;2023-06-14T01:11:01;6.6;;;5.3;;
45314;SDS011;31051;51.540;5.852;2023-06-14T01:23:59;6.1;;;4.8;;
45314;SDS011;31051;51.540;5.852;2023-06-14T01:36:48;5.5;;;4.8;;
45314;SDS011;31051;51.540;5.852;2023-06-14T01:49:48;6.2;;;4.7;;
45314;SDS011;31051;51.540;5.852;2023-06-14T02:02:47;7.2;;;5.0;;
45314;SDS011;31051;51.540;5.852;2023-06-14T02:15:46;10.7;;;4.9;;
45314;SDS011;31051;51.540;5.852;2023-06-14T02:28:46;7.6;;;4.6;;
45314;SDS011;31051;51.540;5.852;2023-06-14T02:41:45;7.8;;;4.7;;
45314;SDS011;31051;51.540;5.852;2023-06-14T02:54:44;7.0;;;4.3;;
45314;SDS011;31051;51.540;5.852;2023-06-14T03:07:44;8.2;;;4.7;;
45314;SDS011;31051;51.540;5.852;2023-06-14T03:20:43;6.4;;;4.4;;
45314;SDS011;31051;51.540;5.852;2023-06-14T03:33:42;7.6;;;4.5;;
45314;SDS011;31051;51.540;5.852;2023-06-14T03:46:42;7.4;;;4.6;;
45314;SDS011;31051;51.540;5.852;2023-06-14T03:59:41;10.2;;;4.9;;
45314;SDS011;31051;51.540;5.852;2023-06-14T04:12:40;12.0;;;5.0;;
45314;SDS011;31051;51.540;5.852;2023-06-14T04:25:40;15.0;;;5.4;;
45314;SDS011;31051;51.540;5.852;2023-06-14T04:38:39;10.1;;;4.5;;
45314;SDS011;31051;51.540;5.852;2023-06-14T04:51:39;11.5;;;4.5;;
45314;SDS011;31051;51.540;5.852;2023-06-14T05:04:38;13.1;;;4.6;;
45314;SDS011;31051;51.540;5.852;2023-06-14T05:17:37;13.8;;;4.4;;
45314;SDS011;31051;51.540;5.852;2023-06-14T05:30:37;14.9;;;3.8;;
45314;SDS011;31051;51.540;5.852;2023-06-14T05:43:36;5.7;;;3.4;;
45314;SDS011;31051;51.540;5.852;2023-06-14T05:56:36;6.1;;;3.2;;
45314;SDS011;31051;51.540;5.852;2023-06-14T06:09:34;5.9;;;3.0;;
45314;SDS011;31051;51.540;5.852;2023-06-14T06:22:23;6.0;;;3.0;;
45314;SDS011;31051;51.540;5.852;2023-06-14T06:35:22;7.2;;;3.3;;
45314;SDS011;31051;51.540;5.852;2023-06-14T06:48:10;10.2;;;3.4;;
45314;SDS011;31051;51.540;5.852;2023-06-14T07:00:58;5.7;;;3.0;;
45314;SDS011;31051;51.540;5.852;2023-06-14T07:13:45;6.6;;;2.8;;
45314;SDS011;31051;51.540;5.852;2023-06-14T07:26:32;5.0;;;2.7;;
45314;SDS011;31051;51.540;5.852;2023-06-14T07:39:20;6.1;;;2.5;;
45314;SDS011;31051;51.540;5.852;2023-06-14T07:52:07;11.9;;;2.6;;
45314;SDS011;31051;51.540;5.852;2023-06-14T08:04:55;4.4;;;1.8;;
45314;SDS011;31051;51.540;5.852;2023-06-14T08:17:42;5.8;;;1.7;;
45314;SDS011;31051;51.540;5.852;2023-06-14T08:30:30;17.3;;;2.6;;
45314;SDS011;31051;51.540;5.852;2023-06-14T08:43:17;4.4;;;1.4;;
45314;SDS011;31051;51.540;5.852;2023-06-14T08:56:04;3.2;;;1.4;;
45314;SDS011;31051;51.540;5.852;2023-06-14T09:08:52;5.4;;;1.6;;
45314;SDS011;31051;51.540;5.852;2023-06-14T09:21:39;3.4;;;1.5;;
45314;SDS011;31051;51.540;5.852;2023-06-14T09:34:27;8.9;;;1.9;;
45314;SDS011;31051;51.540;5.852;2023-06-14T09:47:14;5.8;;;1.8;;
45314;SDS011;31051;51.540;5.852;2023-06-14T10:00:02;26.3;;;2.7;;
45314;SDS011;31051;51.540;5.852;2023-06-14T10:12:49;11.4;;;2.1;;
45314;SDS011;31051;51.540;5.852;2023-06-14T10:25:37;13.0;;;2.2;;
45314;SDS011;31051;51.540;5.852;2023-06-14T10:38:24;4.0;;;1.6;;
45314;SDS011;31051;51.540;5.852;2023-06-14T10:51:12;5.3;;;1.6;;
45314;SDS011;31051;51.540;5.852;2023-06-14T11:03:59;6.8;;;1.8;;
45314;SDS011;31051;51.540;5.852;2023-06-14T11:16:47;4.7;;;1.6;;
45314;SDS011;31051;51.540;5.852;2023-06-14T11:29:34;10.4;;;1.8;;
45314;SDS011;31051;51.540;5.852;2023-06-14T11:42:22;5.7;;;1.6;;
45314;SDS011;31051;51.540;5.852;2023-06-14T11:55:09;25.4;;;3.0;;
45314;SDS011;31051;51.540;5.852;2023-06-14T12:07:57;3.7;;;1.5;;
45314;SDS011;31051;51.540;5.852;2023-06-14T12:20:44;15.4;;;2.3;;
45314;SDS011;31051;51.540;5.852;2023-06-14T12:33:31;3.6;;;1.2;;
45314;SDS011;31051;51.540;5.852;2023-06-14T12:46:19;4.7;;;1.4;;
45314;SDS011;31051;51.540;5.852;2023-06-14T12:59:06;5.0;;;1.3;;
45314;SDS011;31051;51.540;5.852;2023-06-14T13:11:54;11.9;;;1.8;;
45314;SDS011;31051;51.540;5.852;2023-06-14T13:24:41;4.9;;;1.4;;
45314;SDS011;31051;51.540;5.852;2023-06-14T13:37:29;7.1;;;1.3;;
45314;SDS011;31051;51.540;5.852;2023-06-14T13:50:17;4.4;;;1.2;;
45314;SDS011;31051;51.540;5.852;2023-06-14T14:03:04;12.0;;;1.7;;
45314;SDS011;31051;51.540;5.852;2023-06-14T14:15:52;4.8;;;1.3;;
45314;SDS011;31051;51.540;5.852;2023-06-14T14:28:39;7.5;;;1.5;;
45314;SDS011;31051;51.540;5.852;2023-06-14T14:41:27;4.2;;;1.2;;
45314;SDS011;31051;51.540;5.852;2023-06-14T14:54:14;9.9;;;1.7;;
45314;SDS011;31051;51.540;5.852;2023-06-14T15:07:02;4.8;;;1.2;;
45314;SDS011;31051;51.540;5.852;2023-06-14T15:19:49;3.2;;;1.2;;
45314;SDS011;31051;51.540;5.852;2023-06-14T15:32:36;5.6;;;1.5;;
45314;SDS011;31051;51.540;5.852;2023-06-14T15:45:24;3.2;;;1.3;;
45314;SDS011;31051;51.540;5.852;2023-06-14T15:58:11;28.0;;;2.6;;
45314;SDS011;31051;51.540;5.852;2023-06-14T16:10:59;6.6;;;1.6;;
45314;SDS011;31051;51.540;5.852;2023-06-14T16:23:46;3.8;;;1.6;;
45314;SDS011;31051;51.540;5.852;2023-06-14T16:36:34;8.8;;;2.0;;
45314;SDS011;31051;51.540;5.852;2023-06-14T16:49:21;7.0;;;1.7;;
45314;SDS011;31051;51.540;5.852;2023-06-14T17:02:09;4.1;;;1.8;;
45314;SDS011;31051;51.540;5.852;2023-06-14T17:14:56;3.6;;;1.7;;
45314;SDS011;31051;51.540;5.852;2023-06-14T17:27:43;8.1;;;2.1;;
45314;SDS011;31051;51.540;5.852;2023-06-14T17:40:31;8.0;;;2.1;;
45314;SDS011;31051;51.540;5.852;2023-06-14T17:53:18;10.9;;;2.3;;
45314;SDS011;31051;51.540;5.852;2023-06-14T18:06:06;3.0;;;1.8;;
45314;SDS011;31051;51.540;5.852;2023-06-14T18:18:53;3.3;;;1.9;;
45314;SDS011;31051;51.540;5.852;2023-06-14T18:31:41;5.4;;;2.1;;
45314;SDS011;31051;51.540;5.852;2023-06-14T18:44:28;4.6;;;1.9;;
45314;SDS011;31051;51.540;5.852;2023-06-14T18:57:15;4.6;;;2.0;;
45314;SDS011;31051;51.540;5.852;2023-06-14T19:10:03;4.2;;;1.9;;
45314;SDS011;31051;51.540;5.852;2023-06-14T19:22:50;4.8;;;2.1;;
45314;SDS011;31051;51.540;5.852;2023-06-14T19:35:38;4.4;;;2.1;;
45314;SDS011;31051;51.540;5.852;2023-06-14T19:48:26;4.8;;;2.2;;
45314;SDS011;31051;51.540;5.852;2023-06-14T20:01:24;4.1;;;2.3;;
45314;SDS011;31051;51.540;5.852;2023-06-14T20:14:13;5.4;;;2.7;;
45314;SDS011;31051;51.540;5.852;2023-06-14T20:27:02;6.7;;;3.0;;
45314;SDS011;31051;51.540;5.852;2023-06-14T20:40:02;5.9;;;2.8;;
45314;SDS011;31051;51.540;5.852;2023-06-14T20:53:01;7.1;;;3.1;;
45314;SDS011;31051;51.540;5.852;2023-06-14T21:06:00;7.6;;;2.8;;
45314;SDS011;31051;51.540;5.852;2023-06-14T21:18:59;5.0;;;2.9;;
45314;SDS011;31051;51.540;5.852;2023-06-14T21:31:47;3.7;;;2.7;;
45314;SDS011;31051;51.540;5.852;2023-06-14T21:44:36;5.0;;;2.9;;
45314;SDS011;31051;51.540;5.852;2023-06-14T21:57:35;3.4;;;2.4;;
45314;SDS011;31051;51.540;5.852;2023-06-14T22:10:24;4.9;;;2.6;;
45314;SDS011;31051;51.540;5.852;2023-06-14T22:23:24;4.4;;;2.6;;
45314;SDS011;31051;51.540;5.852;2023-06-14T22:36:22;3.9;;;2.6;;
45314;SDS011;31051;51.540;5.852;2023-06-14T22:49:11;4.1;;;2.8;;
45314;SDS011;31051;51.540;5.852;2023-06-14T23:02:11;5.5;;;3.0;;
45314;SDS011;31051;51.540;5.852;2023-06-14T23:15:10;4.5;;;3.1;;
45314;SDS011;31051;51.540;5.852;2023-06-14T23:28:09;5.4;;;3.2;;
45314;SDS011;31051;51.540;5.852;2023-06-14T23:41:09;7.9;;;3.7;;
45314;SDS011;31051;51.540;5.852;2023-06-14T23:54:08;4.4;;;3.4;;
